BAW985 EGKK-EHRD
Flight info
| Callsign | BAW985 |
|---|---|
| Flight time | 0h 33m |
| Altitude | 23000 |
| Route | FRANE1Z FRANE M604 GASBA M197 REDFA REDFA3R |
| Aircraft | A320/H-SDE1FGHILORVWXY/L |
Departure
| Time | 2026-05-06 13:28 |
|---|---|
| Airport | London Gatwick Airport (EGKK) |
Arrival
| Time | 2026-05-06 14:01 |
|---|---|
| Airport | Rotterdam The Hague Airport (EHRD) |
| Time | Latitude | Longitude | Altitude | Speed | Heading |
|---|---|---|---|---|---|
| 2026-05-06 13:02 | 51.15524 | -0.16656 | 211 ft | 0 kts | 348° |
| 2026-05-06 13:12 | 51.15522 | -0.16656 | 204 ft | 2 kts | 347° |
| 2026-05-06 13:12 | 51.15499 | -0.16644 | 212 ft | 4 kts | 330° |
| 2026-05-06 13:13 | 51.15478 | -0.16618 | 215 ft | 4 kts | 305° |
| 2026-05-06 13:13 | 51.15467 | -0.16580 | 215 ft | 4 kts | 279° |
| 2026-05-06 13:13 | 51.15466 | -0.16541 | 216 ft | 2 kts | 258° |
| 2026-05-06 13:13 | 51.15466 | -0.16539 | 216 ft | 0 kts | 258° |
| 2026-05-06 13:16 | 51.15463 | -0.16562 | 214 ft | 5 kts | 256° |
| 2026-05-06 13:16 | 51.15450 | -0.16647 | 213 ft | 3 kts | 258° |
| 2026-05-06 13:17 | 51.15446 | -0.16696 | 212 ft | 8 kts | 267° |
| 2026-05-06 13:17 | 51.15446 | -0.16725 | 213 ft | 2 kts | 274° |
| 2026-05-06 13:17 | 51.15452 | -0.16779 | 211 ft | 8 kts | 269° |
| 2026-05-06 13:17 | 51.15437 | -0.16903 | 205 ft | 14 kts | 257° |
| 2026-05-06 13:18 | 51.15415 | -0.17068 | 211 ft | 14 kts | 258° |
| 2026-05-06 13:18 | 51.15386 | -0.17196 | 213 ft | 13 kts | 248° |
| 2026-05-06 13:18 | 51.15335 | -0.17335 | 211 ft | 14 kts | 221° |
| 2026-05-06 13:18 | 51.15298 | -0.17455 | 211 ft | 15 kts | 257° |
| 2026-05-06 13:19 | 51.15276 | -0.17631 | 204 ft | 18 kts | 258° |
| 2026-05-06 13:19 | 51.15253 | -0.17788 | 209 ft | 10 kts | 257° |
| 2026-05-06 13:19 | 51.15235 | -0.17920 | 204 ft | 4 kts | 257° |
| 2026-05-06 13:19 | 51.15231 | -0.17946 | 209 ft | 6 kts | 256° |
| 2026-05-06 13:20 | 51.15219 | -0.18043 | 204 ft | 12 kts | 261° |
| 2026-05-06 13:20 | 51.15209 | -0.18186 | 204 ft | 2 kts | 265° |
| 2026-05-06 13:20 | 51.15199 | -0.18253 | 213 ft | 12 kts | 255° |
| 2026-05-06 13:20 | 51.15177 | -0.18413 | 204 ft | 16 kts | 258° |
| 2026-05-06 13:21 | 51.15149 | -0.18604 | 203 ft | 19 kts | 255° |
| 2026-05-06 13:21 | 51.15118 | -0.18827 | 206 ft | 22 kts | 258° |
| 2026-05-06 13:21 | 51.15083 | -0.19079 | 215 ft | 24 kts | 258° |
| 2026-05-06 13:21 | 51.15044 | -0.19358 | 206 ft | 27 kts | 257° |
| 2026-05-06 13:22 | 51.15002 | -0.19664 | 209 ft | 30 kts | 256° |
| 2026-05-06 13:22 | 51.14956 | -0.19996 | 215 ft | 27 kts | 257° |
| 2026-05-06 13:22 | 51.14915 | -0.20295 | 207 ft | 29 kts | 257° |
| 2026-05-06 13:22 | 51.14870 | -0.20621 | 208 ft | 31 kts | 258° |
| 2026-05-06 13:23 | 51.14823 | -0.20961 | 212 ft | 32 kts | 258° |
| 2026-05-06 13:23 | 51.14773 | -0.21261 | 204 ft | 22 kts | 258° |
| 2026-05-06 13:23 | 51.14693 | -0.21385 | 215 ft | 13 kts | 153° |
| 2026-05-06 13:23 | 51.14627 | -0.21331 | 207 ft | 7 kts | 162° |
| 2026-05-06 13:24 | 51.14609 | -0.21324 | 206 ft | 0 kts | 167° |
| 2026-05-06 13:26 | 51.14602 | -0.21322 | 208 ft | 4 kts | 167° |
| 2026-05-06 13:26 | 51.14554 | -0.21289 | 212 ft | 11 kts | 146° |
| 2026-05-06 13:27 | 51.14518 | -0.21180 | 212 ft | 10 kts | 84° |
| 2026-05-06 13:27 | 51.14528 | -0.21110 | 212 ft | 0 kts | 77° |
| 2026-05-06 13:27 | 51.14548 | -0.20973 | 204 ft | 43 kts | 77° |
| 2026-05-06 13:28 | 51.14664 | -0.20147 | 207 ft | 107 kts | 77° |
| 2026-05-06 13:28 | 51.14854 | -0.18737 | 205 ft | 152 kts | 79° |
| 2026-05-06 13:28 | 51.15059 | -0.16998 | 624 ft | 166 kts | 77° |
| 2026-05-06 13:28 | 51.15307 | -0.15133 | 1199 ft | 178 kts | 73° |
| 2026-05-06 13:29 | 51.15582 | -0.13179 | 1736 ft | 191 kts | 72° |
| 2026-05-06 13:29 | 51.15888 | -0.10939 | 1992 ft | 218 kts | 73° |
| 2026-05-06 13:29 | 51.16236 | -0.08445 | 2422 ft | 243 kts | 73° |
| 2026-05-06 13:29 | 51.16623 | -0.05744 | 3169 ft | 255 kts | 73° |
| 2026-05-06 13:30 | 51.16888 | -0.02969 | 4075 ft | 262 kts | 86° |
| 2026-05-06 13:30 | 51.16851 | -0.00039 | 5086 ft | 266 kts | 89° |
| 2026-05-06 13:30 | 51.16797 | 0.02922 | 6041 ft | 269 kts | 88° |
| 2026-05-06 13:30 | 51.16736 | 0.05933 | 6919 ft | 275 kts | 89° |
| 2026-05-06 13:31 | 51.16761 | 0.08988 | 7751 ft | 277 kts | 77° |
| 2026-05-06 13:31 | 51.17424 | 0.11847 | 8568 ft | 277 kts | 57° |
| 2026-05-06 13:31 | 51.18485 | 0.14434 | 9431 ft | 281 kts | 53° |
| 2026-05-06 13:31 | 51.19559 | 0.17005 | 10089 ft | 292 kts | 53° |
| 2026-05-06 13:32 | 51.20734 | 0.19803 | 10336 ft | 316 kts | 54° |
| 2026-05-06 13:32 | 51.21981 | 0.22778 | 10575 ft | 336 kts | 54° |
| 2026-05-06 13:32 | 51.23297 | 0.25943 | 10949 ft | 346 kts | 54° |
| 2026-05-06 13:32 | 51.24629 | 0.29170 | 11332 ft | 350 kts | 54° |
| 2026-05-06 13:33 | 51.25970 | 0.32428 | 11726 ft | 353 kts | 55° |
| 2026-05-06 13:33 | 51.27318 | 0.35711 | 12125 ft | 356 kts | 55° |
| 2026-05-06 13:33 | 51.28684 | 0.39041 | 12540 ft | 359 kts | 55° |
| 2026-05-06 13:33 | 51.30055 | 0.42389 | 12953 ft | 361 kts | 54° |
| 2026-05-06 13:34 | 51.31436 | 0.45766 | 13377 ft | 364 kts | 54° |
| 2026-05-06 13:34 | 51.32826 | 0.49168 | 13809 ft | 368 kts | 55° |
| 2026-05-06 13:34 | 51.34231 | 0.52604 | 14160 ft | 371 kts | 56° |
| 2026-05-06 13:34 | 51.35629 | 0.56025 | 14559 ft | 374 kts | 56° |
| 2026-05-06 13:35 | 51.37056 | 0.59517 | 14963 ft | 376 kts | 56° |
| 2026-05-06 13:35 | 51.38493 | 0.63039 | 15379 ft | 379 kts | 55° |
| 2026-05-06 13:35 | 51.39933 | 0.66577 | 15803 ft | 382 kts | 56° |
| 2026-05-06 13:35 | 51.41389 | 0.70166 | 16238 ft | 385 kts | 55° |
| 2026-05-06 13:36 | 51.42855 | 0.73775 | 16683 ft | 388 kts | 55° |
| 2026-05-06 13:36 | 51.44332 | 0.77413 | 17143 ft | 391 kts | 55° |
| 2026-05-06 13:36 | 51.45822 | 0.81084 | 17607 ft | 394 kts | 56° |
| 2026-05-06 13:36 | 51.47290 | 0.84714 | 18067 ft | 397 kts | 56° |
| 2026-05-06 13:37 | 51.48803 | 0.88459 | 18505 ft | 400 kts | 56° |
| 2026-05-06 13:37 | 51.50315 | 0.92212 | 18949 ft | 401 kts | 56° |
| 2026-05-06 13:37 | 51.51824 | 0.95963 | 19650 ft | 396 kts | 56° |
| 2026-05-06 13:37 | 51.53276 | 0.99585 | 20916 ft | 376 kts | 57° |
| 2026-05-06 13:38 | 51.54655 | 1.03033 | 22101 ft | 361 kts | 57° |
| 2026-05-06 13:38 | 51.56015 | 1.06436 | 22635 ft | 365 kts | 57° |
| 2026-05-06 13:38 | 51.57408 | 1.09920 | 22894 ft | 376 kts | 57° |
| 2026-05-06 13:38 | 51.58850 | 1.13525 | 22966 ft | 391 kts | 57° |
| 2026-05-06 13:39 | 51.60241 | 1.17267 | 22964 ft | 399 kts | 65° |
| 2026-05-06 13:39 | 51.61029 | 1.21599 | 22966 ft | 412 kts | 82° |
| 2026-05-06 13:39 | 51.61455 | 1.26244 | 22970 ft | 427 kts | 82° |
| 2026-05-06 13:39 | 51.61881 | 1.31053 | 22966 ft | 441 kts | 82° |
| 2026-05-06 13:40 | 51.62313 | 1.36009 | 22963 ft | 452 kts | 82° |
| 2026-05-06 13:40 | 51.62752 | 1.41041 | 22965 ft | 456 kts | 82° |
| 2026-05-06 13:40 | 51.63194 | 1.46100 | 22962 ft | 457 kts | 83° |
| 2026-05-06 13:40 | 51.63632 | 1.51094 | 22965 ft | 458 kts | 83° |
| 2026-05-06 13:41 | 51.64075 | 1.56165 | 22965 ft | 458 kts | 83° |
| 2026-05-06 13:41 | 51.64517 | 1.61269 | 22964 ft | 464 kts | 83° |
| 2026-05-06 13:41 | 51.64966 | 1.66480 | 22965 ft | 476 kts | 83° |
| 2026-05-06 13:41 | 51.65421 | 1.71794 | 22962 ft | 482 kts | 83° |
| 2026-05-06 13:42 | 51.65876 | 1.77147 | 22961 ft | 483 kts | 83° |
| 2026-05-06 13:42 | 51.66331 | 1.82505 | 22961 ft | 483 kts | 83° |
| 2026-05-06 13:42 | 51.66785 | 1.87873 | 22962 ft | 483 kts | 83° |
| 2026-05-06 13:42 | 51.67235 | 1.93239 | 22959 ft | 483 kts | 83° |
| 2026-05-06 13:43 | 51.67678 | 1.98526 | 22958 ft | 483 kts | 83° |
| 2026-05-06 13:43 | 51.68125 | 2.03885 | 22959 ft | 482 kts | 83° |
| 2026-05-06 13:43 | 51.68571 | 2.09245 | 22958 ft | 482 kts | 83° |
| 2026-05-06 13:43 | 51.69011 | 2.14603 | 22957 ft | 482 kts | 83° |
| 2026-05-06 13:44 | 51.69444 | 2.19956 | 22959 ft | 482 kts | 83° |
| 2026-05-06 13:44 | 51.69875 | 2.25319 | 22953 ft | 482 kts | 83° |
| 2026-05-06 13:44 | 51.70305 | 2.30673 | 22950 ft | 482 kts | 83° |
| 2026-05-06 13:44 | 51.70735 | 2.36024 | 22940 ft | 482 kts | 83° |
| 2026-05-06 13:45 | 51.71156 | 2.41311 | 22943 ft | 482 kts | 83° |
| 2026-05-06 13:45 | 51.71986 | 2.51893 | 22293 ft | 460 kts | 83° |
| 2026-05-06 13:45 | 51.72384 | 2.56953 | 21753 ft | 451 kts | 83° |
| 2026-05-06 13:46 | 51.72773 | 2.61901 | 21436 ft | 437 kts | 83° |
| 2026-05-06 13:46 | 51.73141 | 2.66625 | 21236 ft | 412 kts | 83° |
| 2026-05-06 13:46 | 51.73489 | 2.71118 | 20637 ft | 396 kts | 83° |
| 2026-05-06 13:46 | 51.73824 | 2.75469 | 19847 ft | 388 kts | 83° |
| 2026-05-06 13:47 | 51.74145 | 2.79697 | 19222 ft | 383 kts | 83° |
| 2026-05-06 13:47 | 51.74464 | 2.83939 | 18809 ft | 378 kts | 83° |
| 2026-05-06 13:47 | 51.74778 | 2.88137 | 18293 ft | 377 kts | 83° |
| 2026-05-06 13:47 | 51.75088 | 2.92315 | 17794 ft | 373 kts | 83° |
| 2026-05-06 13:48 | 51.75395 | 2.96444 | 17349 ft | 367 kts | 82° |
| 2026-05-06 13:48 | 51.75698 | 3.00526 | 16810 ft | 365 kts | 82° |
| 2026-05-06 13:48 | 51.75998 | 3.04576 | 16352 ft | 361 kts | 82° |
| 2026-05-06 13:48 | 51.76324 | 3.08578 | 15898 ft | 357 kts | 81° |
| 2026-05-06 13:49 | 51.76680 | 3.12471 | 15495 ft | 342 kts | 80° |
| 2026-05-06 13:49 | 51.76915 | 3.14931 | 15309 ft | 330 kts | 81° |
| 2026-05-06 13:49 | 51.77270 | 3.18545 | 14918 ft | 322 kts | 80° |
| 2026-05-06 13:49 | 51.77622 | 3.22108 | 14361 ft | 321 kts | 79° |
| 2026-05-06 13:50 | 51.78076 | 3.26805 | 13801 ft | 318 kts | 81° |
| 2026-05-06 13:50 | 51.78411 | 3.30343 | 13353 ft | 324 kts | 80° |
| 2026-05-06 13:50 | 51.78755 | 3.33996 | 12932 ft | 330 kts | 81° |
| 2026-05-06 13:50 | 51.78981 | 3.36420 | 12651 ft | 329 kts | 80° |
| 2026-05-06 13:51 | 51.79429 | 3.41290 | 12095 ft | 327 kts | 80° |
| 2026-05-06 13:51 | 51.79648 | 3.43692 | 11813 ft | 326 kts | 80° |
| 2026-05-06 13:51 | 51.79984 | 3.47374 | 10890 ft | 339 kts | 80° |
| 2026-05-06 13:51 | 51.80333 | 3.51209 | 10078 ft | 345 kts | 79° |
| 2026-05-06 13:52 | 51.80766 | 3.56052 | 9795 ft | 313 kts | 79° |
| 2026-05-06 13:52 | 51.81063 | 3.59408 | 9666 ft | 293 kts | 79° |
| 2026-05-06 13:52 | 51.81259 | 3.61604 | 9480 ft | 292 kts | 81° |
| 2026-05-06 13:52 | 51.81545 | 3.64796 | 9205 ft | 288 kts | 80° |
| 2026-05-06 13:53 | 51.81834 | 3.67982 | 8937 ft | 285 kts | 80° |
| 2026-05-06 13:53 | 51.82119 | 3.71144 | 8662 ft | 283 kts | 79° |
| 2026-05-06 13:53 | 51.82401 | 3.74286 | 8399 ft | 281 kts | 79° |
| 2026-05-06 13:53 | 51.82679 | 3.77413 | 8031 ft | 281 kts | 81° |
| 2026-05-06 13:54 | 51.82957 | 3.80548 | 7654 ft | 281 kts | 80° |
| 2026-05-06 13:54 | 51.83233 | 3.83680 | 7281 ft | 282 kts | 80° |
| 2026-05-06 13:54 | 51.83510 | 3.86812 | 6904 ft | 281 kts | 78° |
| 2026-05-06 13:54 | 51.83792 | 3.90002 | 6338 ft | 289 kts | 79° |
| 2026-05-06 13:55 | 51.84070 | 3.93184 | 5473 ft | 294 kts | 79° |
| 2026-05-06 13:55 | 51.84361 | 3.96511 | 4509 ft | 299 kts | 79° |
| 2026-05-06 13:55 | 51.84638 | 3.99725 | 4324 ft | 276 kts | 79° |
| 2026-05-06 13:55 | 51.84888 | 4.02694 | 3903 ft | 264 kts | 79° |
| 2026-05-06 13:56 | 51.85145 | 4.05688 | 3149 ft | 267 kts | 79° |
| 2026-05-06 13:56 | 51.85388 | 4.08527 | 3075 ft | 243 kts | 79° |
| 2026-05-06 13:56 | 51.85607 | 4.11128 | 2793 ft | 230 kts | 79° |
| 2026-05-06 13:56 | 51.85823 | 4.13675 | 2477 ft | 220 kts | 79° |
| 2026-05-06 13:57 | 51.86023 | 4.16034 | 2360 ft | 204 kts | 79° |
| 2026-05-06 13:57 | 51.86206 | 4.18201 | 2208 ft | 190 kts | 78° |
| 2026-05-06 13:57 | 51.86386 | 4.20282 | 2156 ft | 184 kts | 76° |
| 2026-05-06 13:57 | 51.86898 | 4.22093 | 2002 ft | 177 kts | 47° |
| 2026-05-06 13:58 | 51.87620 | 4.23722 | 1758 ft | 178 kts | 57° |
| 2026-05-06 13:58 | 51.88236 | 4.25413 | 1829 ft | 173 kts | 56° |
| 2026-05-06 13:58 | 51.88889 | 4.27056 | 1906 ft | 174 kts | 55° |
| 2026-05-06 13:58 | 51.89535 | 4.28691 | 1746 ft | 171 kts | 54° |
| 2026-05-06 13:59 | 51.90180 | 4.30304 | 1511 ft | 172 kts | 54° |
| 2026-05-06 13:59 | 51.90839 | 4.31922 | 1170 ft | 171 kts | 54° |
| 2026-05-06 13:59 | 51.91468 | 4.33518 | 912 ft | 170 kts | 57° |
| 2026-05-06 13:59 | 51.92070 | 4.35161 | 666 ft | 168 kts | 55° |
| 2026-05-06 14:00 | 51.92703 | 4.36675 | 823 ft | 162 kts | 53° |
| 2026-05-06 14:00 | 51.93320 | 4.38119 | 695 ft | 146 kts | 55° |
| 2026-05-06 14:00 | 51.93862 | 4.39431 | 605 ft | 136 kts | 55° |
| 2026-05-06 14:00 | 51.94364 | 4.40687 | 393 ft | 133 kts | 56° |
| 2026-05-06 14:01 | 51.94852 | 4.41910 | 197 ft | 128 kts | 58° |
| 2026-05-06 14:01 | 51.95326 | 4.43105 | 28 ft | 126 kts | 56° |
| 2026-05-06 14:01 | 51.95731 | 4.44120 | 1 ft | 65 kts | 58° |
| 2026-05-06 14:01 | 51.95891 | 4.44530 | -2 ft | 23 kts | 60° |